createdAt,value
2016-06-22T00:00:40.711Z,0
2016-06-22T00:01:39.494Z,0
2016-06-22T00:02:41.362Z,0
2016-06-22T00:03:41.380Z,0
2016-06-22T00:04:40.207Z,0
2016-06-22T00:05:40.866Z,0
2016-06-22T00:06:40.876Z,0
2016-06-22T00:07:40.878Z,0
2016-06-22T00:08:40.293Z,0
2016-06-22T00:09:40.321Z,0
2016-06-22T00:10:40.336Z,0
2016-06-22T00:11:41.583Z,0
2016-06-22T00:12:41.006Z,0
2016-06-22T00:13:40.427Z,0
2016-06-22T00:14:39.830Z,0
2016-06-22T00:15:40.473Z,0
2016-06-22T00:16:40.486Z,0
2016-06-22T00:17:41.138Z,0
2016-06-22T00:18:41.765Z,0
2016-06-22T00:19:40.558Z,0
2016-06-22T00:20:41.818Z,0
2016-06-22T00:21:41.242Z,0
2016-06-22T00:22:41.263Z,0
2016-06-22T00:23:41.278Z,0
2016-06-22T00:24:41.920Z,0
2016-06-22T00:25:41.336Z,0
2016-06-22T00:26:40.136Z,0
2016-06-22T00:27:40.776Z,0
2016-06-22T00:28:40.185Z,0
2016-06-22T00:29:41.420Z,0
2016-06-22T00:30:41.482Z,0
2016-06-22T00:31:41.478Z,0
2016-06-22T00:32:40.892Z,0
2016-06-22T00:33:40.926Z,0
2016-06-22T00:34:40.933Z,0
2016-06-22T00:35:41.031Z,0
2016-06-22T00:36:40.383Z,0
2016-06-22T00:37:41.011Z,0
2016-06-22T00:38:41.050Z,0
2016-06-22T00:39:41.727Z,0
2016-06-22T00:40:41.094Z,0
2016-06-22T00:41:41.736Z,0
2016-06-22T00:42:41.143Z,0
2016-06-22T00:43:41.177Z,0
2016-06-22T00:44:41.218Z,0
2016-06-22T00:45:40.635Z,0
2016-06-22T00:46:41.875Z,0
2016-06-22T00:47:41.278Z,0
2016-06-22T00:48:41.306Z,0
2016-06-22T00:49:41.314Z,0
2016-06-22T00:50:40.737Z,0
2016-06-22T00:51:41.384Z,0
2016-06-22T00:52:42.005Z,0
2016-06-22T00:53:42.031Z,0
2016-06-22T00:54:41.453Z,0
2016-06-22T00:55:42.074Z,0
2016-06-22T00:56:40.901Z,0
2016-06-22T00:57:42.131Z,0
2016-06-22T00:58:41.551Z,0
2016-06-22T00:59:42.423Z,0
2016-06-22T01:00:41.634Z,0
2016-06-22T01:01:42.237Z,0
2016-06-22T01:02:42.287Z,0
2016-06-22T01:03:42.287Z,0
2016-06-22T01:04:41.082Z,0
2016-06-22T01:05:42.359Z,0
2016-06-22T01:06:41.129Z,0
2016-06-22T01:07:41.157Z,0
2016-06-22T01:08:43.021Z,0
2016-06-22T01:09:41.825Z,0
2016-06-22T01:10:41.225Z,0
2016-06-22T01:11:41.881Z,0
2016-06-22T01:12:41.895Z,0
2016-06-22T01:13:42.527Z,0
2016-06-22T01:14:41.341Z,0
2016-06-22T01:15:41.965Z,0
2016-06-22T01:16:42.595Z,0
2016-06-22T01:17:42.629Z,0
2016-06-22T01:18:42.678Z,0
2016-06-22T01:19:42.064Z,0
2016-06-22T01:20:42.098Z,0
2016-06-22T01:21:41.512Z,0
2016-06-22T01:22:41.526Z,0
2016-06-22T01:23:43.398Z,0
2016-06-22T01:24:42.807Z,0
2016-06-22T01:25:41.611Z,0
2016-06-22T01:26:42.246Z,0
2016-06-22T01:27:41.673Z,0
2016-06-22T01:28:41.683Z,0
2016-06-22T01:29:42.347Z,0
2016-06-22T01:30:41.727Z,0
2016-06-22T01:31:42.996Z,0
2016-06-22T01:32:42.984Z,0
2016-06-22T01:33:42.425Z,0
2016-06-22T01:34:41.821Z,0
2016-06-22T01:35:43.065Z,0
2016-06-22T01:36:41.879Z,0
2016-06-22T01:37:43.152Z,0
2016-06-22T01:38:41.938Z,0
2016-06-22T01:39:41.955Z,0
2016-06-22T01:40:43.214Z,0
2016-06-22T01:41:42.030Z,0
2016-06-22T01:42:43.251Z,0
2016-06-22T01:43:43.243Z,0
2016-06-22T01:44:43.287Z,0
2016-06-22T01:45:43.306Z,0
2016-06-22T01:46:43.963Z,0
2016-06-22T01:47:42.807Z,0
2016-06-22T01:48:42.201Z,0
2016-06-22T01:49:42.834Z,0
2016-06-22T01:50:42.847Z,0
2016-06-22T01:51:43.496Z,0
2016-06-22T01:52:43.518Z,0
2016-06-22T01:53:42.299Z,0
2016-06-22T01:54:44.167Z,0
2016-06-22T01:55:44.185Z,0
2016-06-22T01:56:43.602Z,0
2016-06-22T01:57:43.633Z,0
2016-06-22T01:58:42.426Z,0
2016-06-22T01:59:42.455Z,0
2016-06-22T02:00:43.079Z,0
2016-06-22T02:01:44.337Z,0
2016-06-22T02:02:43.758Z,0
2016-06-22T02:03:43.173Z,0
2016-06-22T02:04:43.803Z,0
2016-06-22T02:05:42.609Z,0
2016-06-22T02:06:43.856Z,0
2016-06-22T02:07:42.646Z,0
2016-06-22T02:08:43.282Z,0
2016-06-22T02:09:44.537Z,0
2016-06-22T02:10:42.730Z,0
2016-06-22T02:11:43.967Z,0
2016-06-22T02:12:43.387Z,0
2016-06-22T02:13:44.032Z,0
2016-06-22T02:14:44.067Z,0
2016-06-22T02:15:43.461Z,0
2016-06-22T02:16:42.884Z,0
2016-06-22T02:17:43.518Z,0
2016-06-22T02:18:43.553Z,0
2016-06-22T02:19:42.959Z,0
2016-06-22T02:20:43.585Z,0
2016-06-22T02:21:43.628Z,0
2016-06-22T02:22:44.250Z,0
2016-06-22T02:23:44.283Z,0
2016-06-22T02:24:43.755Z,0
2016-06-22T02:25:43.089Z,0
2016-06-22T02:26:43.756Z,0
2016-06-22T02:27:43.774Z,0
2016-06-22T02:28:44.999Z,0
2016-06-22T02:29:43.220Z,0
2016-06-22T02:30:43.836Z,0
2016-06-22T02:31:45.085Z,0
2016-06-22T02:32:43.277Z,0
2016-06-22T02:33:43.301Z,0
2016-06-22T02:34:45.166Z,0
2016-06-22T02:35:44.589Z,0
2016-06-22T02:36:43.392Z,0
2016-06-22T02:37:44.641Z,0
2016-06-22T02:38:44.041Z,0
2016-06-22T02:39:44.073Z,0
2016-06-22T02:40:44.087Z,0
2016-06-22T02:41:44.133Z,0
2016-06-22T02:42:44.143Z,0
2016-06-22T02:43:43.574Z,0
2016-06-22T02:44:44.191Z,0
2016-06-22T02:45:43.615Z,0
2016-06-22T02:46:44.849Z,0
2016-06-22T02:47:44.254Z,0
2016-06-22T02:48:44.296Z,0
2016-06-22T02:49:44.908Z,0
2016-06-22T02:50:45.552Z,0
2016-06-22T02:51:44.997Z,0
2016-06-22T02:52:45.008Z,0
2016-06-22T02:53:43.794Z,0
2016-06-22T02:54:43.832Z,0
2016-06-22T02:55:44.455Z,4
2016-06-22T02:56:44.505Z,4
2016-06-22T02:57:43.902Z,4
2016-06-22T02:58:45.774Z,0
2016-06-22T02:59:44.560Z,4
2016-06-22T03:00:44.601Z,4
2016-06-22T03:01:45.832Z,4
2016-06-22T03:02:45.248Z,4
2016-06-22T03:03:44.051Z,4
2016-06-22T03:04:45.295Z,4
2016-06-22T03:05:44.720Z,8
2016-06-22T03:06:44.127Z,4
2016-06-22T03:07:45.389Z,8
2016-06-22T03:08:45.423Z,8
2016-06-22T03:09:44.816Z,8
2016-06-22T03:10:44.829Z,8
2016-06-22T03:11:44.258Z,12
2016-06-22T03:12:44.272Z,12
2016-06-22T03:13:45.517Z,16
2016-06-22T03:14:44.934Z,16
2016-06-22T03:15:44.959Z,20
2016-06-22T03:16:45.592Z,20
2016-06-22T03:17:45.004Z,24
2016-06-22T03:18:45.057Z,24
2016-06-22T03:19:44.457Z,24
2016-06-22T03:20:45.075Z,28
2016-06-22T03:21:45.104Z,28
2016-06-22T03:22:44.525Z,36
2016-06-22T03:23:44.539Z,36
2016-06-22T03:24:45.842Z,40
2016-06-22T03:25:45.817Z,40
2016-06-22T03:26:45.875Z,44
2016-06-22T03:27:45.862Z,44
2016-06-22T03:28:45.280Z,48
2016-06-22T03:29:45.299Z,56
2016-06-22T03:30:44.720Z,56
2016-06-22T03:31:45.371Z,60
2016-06-22T03:32:45.994Z,64
2016-06-22T03:33:45.411Z,68
2016-06-22T03:34:44.823Z,72
2016-06-22T03:35:45.474Z,80
2016-06-22T03:36:44.872Z,84
2016-06-22T03:37:46.109Z,92
2016-06-22T03:38:46.753Z,100
2016-06-22T03:39:45.555Z,104
2016-06-22T03:40:45.575Z,112
2016-06-22T03:41:46.207Z,120
2016-06-22T03:42:45.635Z,128
2016-06-22T03:43:46.263Z,136
2016-06-22T03:44:46.288Z,148
2016-06-22T03:45:45.700Z,156
2016-06-22T03:46:45.731Z,168
2016-06-22T03:47:46.374Z,184
2016-06-22T03:48:46.391Z,204
2016-06-22T03:49:45.810Z,220
2016-06-22T03:50:46.439Z,248
2016-06-22T03:51:45.852Z,276
2016-06-22T03:52:45.878Z,312
2016-06-22T03:53:45.290Z,352
2016-06-22T03:54:47.160Z,416
2016-06-22T03:55:45.954Z,472
2016-06-22T03:56:45.990Z,528
2016-06-22T03:57:47.217Z,568
2016-06-22T03:58:45.409Z,600
2016-06-22T03:59:46.667Z,620
2016-06-22T04:00:45.467Z,644
2016-06-22T04:01:46.715Z,688
2016-06-22T04:02:47.363Z,772
2016-06-22T04:03:45.539Z,836
2016-06-22T04:04:46.184Z,860
2016-06-22T04:05:46.202Z,860
2016-06-22T04:06:45.619Z,840
2016-06-22T04:07:46.866Z,816
2016-06-22T04:08:46.273Z,812
2016-06-22T04:09:46.912Z,816
2016-06-22T04:10:45.716Z,796
2016-06-22T04:11:46.353Z,764
2016-06-22T04:12:46.377Z,756
2016-06-22T04:13:46.408Z,744
2016-06-22T04:14:47.042Z,728
2016-06-22T04:15:46.471Z,708
2016-06-22T04:16:47.092Z,716
2016-06-22T04:17:46.517Z,764
2016-06-22T04:18:47.135Z,856
2016-06-22T04:19:45.949Z,964
2016-06-22T04:20:46.587Z,1088
2016-06-22T04:21:47.209Z,1196
2016-06-22T04:22:47.247Z,1308
2016-06-22T04:23:46.669Z,1428
2016-06-22T04:24:46.728Z,1504
2016-06-22T04:25:47.929Z,1508
2016-06-22T04:26:46.742Z,1476
2016-06-22T04:27:47.368Z,1412
2016-06-22T04:28:46.776Z,1372
2016-06-22T04:29:46.198Z,1388
2016-06-22T04:30:46.828Z,1484
2016-06-22T04:31:46.864Z,1668
2016-06-22T04:32:46.273Z,1872
2016-06-22T04:33:46.304Z,1980
2016-06-22T04:34:47.555Z,1992
2016-06-22T04:35:47.598Z,1980
2016-06-22T04:36:46.360Z,1968
2016-06-22T04:37:47.020Z,2020
2016-06-22T04:38:47.651Z,2156
2016-06-22T04:39:47.056Z,2200
2016-06-22T04:40:47.078Z,2144
2016-06-22T04:41:47.118Z,2076
2016-06-22T04:42:46.528Z,2040
2016-06-22T04:43:46.563Z,1888
2016-06-22T04:44:47.188Z,1664
2016-06-22T04:45:46.620Z,1384
2016-06-22T04:46:48.457Z,1184
2016-06-22T04:47:47.885Z,1136
2016-06-22T04:48:46.682Z,1080
2016-06-22T04:49:47.311Z,1032
2016-06-22T04:50:47.395Z,1020
2016-06-22T04:51:47.367Z,1080
2016-06-22T04:52:47.383Z,1188
2016-06-22T04:53:48.694Z,1328
2016-06-22T04:54:46.838Z,1452
2016-06-22T04:55:47.486Z,1528
2016-06-22T04:56:46.916Z,1596
2016-06-22T04:57:47.526Z,1604
2016-06-22T04:58:48.774Z,1512
2016-06-22T04:59:47.554Z,1372
2016-06-22T05:00:48.208Z,1212
2016-06-22T05:01:47.611Z,1096
2016-06-22T05:02:47.657Z,984
2016-06-22T05:03:48.275Z,904
2016-06-22T05:04:48.320Z,868
2016-06-22T05:05:48.346Z,860
2016-06-22T05:06:47.763Z,952
2016-06-22T05:07:48.378Z,1268
2016-06-22T05:08:47.181Z,1680
2016-06-22T05:09:48.441Z,1804
2016-06-22T05:10:48.455Z,1744
2016-06-22T05:11:49.101Z,1636
2016-06-22T05:12:47.897Z,1532
2016-06-22T05:13:47.920Z,1348
2016-06-22T05:14:47.350Z,1172
2016-06-22T05:15:49.185Z,1108
2016-06-22T05:16:48.615Z,1132
2016-06-22T05:17:49.252Z,1048
2016-06-22T05:18:48.679Z,948
2016-06-22T05:19:48.697Z,900
2016-06-22T05:20:47.535Z,952
2016-06-22T05:21:48.136Z,1008
2016-06-22T05:22:47.546Z,1048
2016-06-22T05:23:48.789Z,1080
2016-06-22T05:24:47.657Z,1116
2016-06-22T05:25:48.230Z,1136
2016-06-22T05:26:48.270Z,1160
2016-06-22T05:27:48.885Z,1172
2016-06-22T05:28:48.921Z,1188
2016-06-22T05:29:47.730Z,1168
2016-06-22T05:30:48.356Z,1120
2016-06-22T05:31:49.609Z,1088
2016-06-22T05:32:48.423Z,1068
2016-06-22T05:33:49.037Z,1056
2016-06-22T05:34:48.478Z,1080
2016-06-22T05:35:47.887Z,1100
2016-06-22T05:36:49.733Z,1096
2016-06-22T05:37:49.802Z,1112
2016-06-22T05:38:47.962Z,1120
2016-06-22T05:39:48.601Z,1124
2016-06-22T05:40:48.625Z,1128
2016-06-22T05:41:48.663Z,1124
2016-06-22T05:42:49.282Z,1112
2016-06-22T05:43:49.298Z,1112
2016-06-22T05:44:49.960Z,1100
2016-06-22T05:45:48.753Z,1088
2016-06-22T05:46:49.390Z,1100
2016-06-22T05:47:50.014Z,1108
2016-06-22T05:48:49.429Z,1120
2016-06-22T05:49:48.841Z,1128
2016-06-22T05:50:48.883Z,1172
2016-06-22T05:51:49.524Z,1248
2016-06-22T05:52:48.320Z,1308
2016-06-22T05:53:49.567Z,1332
2016-06-22T05:54:49.611Z,1340
2016-06-22T05:55:49.610Z,1392
2016-06-22T05:56:49.654Z,1432
2016-06-22T05:57:49.678Z,1452
2016-06-22T05:58:49.690Z,1448
2016-06-22T05:59:48.497Z,1436
2016-06-22T06:00:49.121Z,1412
2016-06-22T06:01:49.796Z,1384
2016-06-22T06:02:49.805Z,1396
2016-06-22T06:03:50.431Z,1384
2016-06-22T06:04:49.244Z,1360
2016-06-22T06:05:49.881Z,1336
2016-06-22T06:06:49.283Z,1316
2016-06-22T06:07:49.923Z,1304
2016-06-22T06:08:49.947Z,1312
2016-06-22T06:09:49.370Z,1324
2016-06-22T06:10:50.627Z,1324
2016-06-22T06:11:50.029Z,1332
2016-06-22T06:12:50.078Z,1328
2016-06-22T06:13:50.088Z,1324
2016-06-22T06:14:49.511Z,1328
2016-06-22T06:15:49.533Z,1348
2016-06-22T06:16:49.551Z,1356
2016-06-22T06:17:49.576Z,1340
2016-06-22T06:18:49.609Z,1312
2016-06-22T06:19:50.267Z,1292
2016-06-22T06:20:49.677Z,1300
2016-06-22T06:21:49.686Z,1376
2016-06-22T06:22:49.727Z,1484
2016-06-22T06:23:49.735Z,1572
2016-06-22T06:24:50.383Z,1588
2016-06-22T06:25:50.398Z,1560
2016-06-22T06:26:51.035Z,1524
2016-06-22T06:27:50.454Z,1496
2016-06-22T06:28:50.482Z,1500
2016-06-22T06:29:49.282Z,1548
2016-06-22T06:30:49.923Z,1636
2016-06-22T06:31:50.558Z,1732
2016-06-22T06:32:50.579Z,1780
2016-06-22T06:33:49.992Z,1780
2016-06-22T06:34:49.412Z,1756
2016-06-22T06:35:50.659Z,1724
2016-06-22T06:36:50.080Z,1712
2016-06-22T06:37:51.362Z,1720
2016-06-22T06:38:51.367Z,1744
2016-06-22T06:39:50.785Z,1812
2016-06-22T06:40:50.791Z,1884
2016-06-22T06:41:49.655Z,1984
2016-06-22T06:42:50.234Z,2140
2016-06-22T06:43:50.882Z,2268
2016-06-22T06:44:50.921Z,2360
2016-06-22T06:45:50.917Z,2420
2016-06-22T06:46:50.333Z,2452
2016-06-22T06:47:49.767Z,2460
2016-06-22T06:48:51.023Z,2492
2016-06-22T06:49:49.805Z,2508
2016-06-22T06:50:50.459Z,2484
2016-06-22T06:51:51.082Z,2456
2016-06-22T06:52:50.531Z,2452
2016-06-22T06:53:51.164Z,2440
2016-06-22T06:54:51.774Z,2428
2016-06-22T06:55:49.997Z,2416
2016-06-22T06:56:51.227Z,2392
2016-06-22T06:57:50.025Z,2392
2016-06-22T06:58:50.053Z,2380
2016-06-22T06:59:50.706Z,2388
2016-06-22T07:00:50.714Z,2456
2016-06-22T07:01:51.370Z,2516
2016-06-22T07:02:51.387Z,2564
2016-06-22T07:03:50.815Z,2616
2016-06-22T07:04:50.219Z,2676
2016-06-22T07:05:51.487Z,2696
2016-06-22T07:06:51.491Z,2708
2016-06-22T07:07:50.903Z,2696
2016-06-22T07:08:50.954Z,2620
2016-06-22T07:09:50.961Z,2532
2016-06-22T07:10:52.218Z,2472
2016-06-22T07:11:51.609Z,2468
2016-06-22T07:12:51.039Z,2524
2016-06-22T07:13:51.692Z,2612
2016-06-22T07:14:51.713Z,2728
2016-06-22T07:15:51.722Z,2860
2016-06-22T07:16:52.402Z,2980
2016-06-22T07:17:52.361Z,3072
2016-06-22T07:18:52.413Z,3160
2016-06-22T07:19:52.595Z,3272
2016-06-22T07:20:51.967Z,3304
2016-06-22T07:21:52.678Z,3328
2016-06-22T07:22:52.540Z,3404
2016-06-22T07:23:52.599Z,3508
2016-06-22T07:24:51.218Z,3600
2016-06-22T07:25:52.072Z,3712
2016-06-22T07:26:51.431Z,3884
2016-06-22T07:27:52.195Z,3992
2016-06-22T07:28:52.237Z,4016
2016-06-22T07:29:52.117Z,3996
2016-06-22T07:30:52.241Z,4040
2016-06-22T07:31:52.284Z,4196
2016-06-22T07:32:52.524Z,4448
2016-06-22T07:33:52.602Z,4324
2016-06-22T07:34:53.886Z,4280
2016-06-22T07:35:51.739Z,4232
2016-06-22T07:36:51.085Z,4232
2016-06-22T07:37:51.711Z,4312
2016-06-22T07:38:52.425Z,4440
2016-06-22T07:39:51.453Z,4524
2016-06-22T07:40:51.784Z,4620
2016-06-22T07:41:52.958Z,4800
2016-06-22T07:42:52.566Z,4960
2016-06-22T07:43:53.094Z,5156
2016-06-22T07:44:52.513Z,5528
2016-06-22T07:45:51.318Z,5468
2016-06-22T07:46:51.958Z,5456
2016-06-22T07:47:53.200Z,5468
2016-06-22T07:48:52.631Z,5552
2016-06-22T07:49:52.041Z,5712
2016-06-22T07:50:51.458Z,5760
2016-06-22T07:51:52.698Z,5720
2016-06-22T07:52:52.137Z,5748
2016-06-22T07:53:52.148Z,5848
2016-06-22T07:54:52.186Z,5836
2016-06-22T07:55:52.211Z,5580
2016-06-22T07:56:52.229Z,5268
2016-06-22T07:57:51.641Z,5080
2016-06-22T07:58:52.287Z,5000
2016-06-22T07:59:53.545Z,5096
2016-06-22T08:00:52.330Z,5148
2016-06-22T08:01:52.987Z,5460
2016-06-22T08:02:53.616Z,5672
2016-06-22T08:03:53.034Z,5712
2016-06-22T08:04:52.446Z,5684
2016-06-22T08:05:53.102Z,5640
2016-06-22T08:06:53.128Z,5684
2016-06-22T08:07:53.149Z,5720
2016-06-22T08:08:52.567Z,5632
2016-06-22T08:09:53.195Z,5568
2016-06-22T08:10:52.627Z,5448
2016-06-22T08:11:53.261Z,5428
2016-06-22T08:12:53.272Z,5532
2016-06-22T08:13:53.944Z,5572
2016-06-22T08:14:53.335Z,5516
2016-06-22T08:15:52.755Z,5328
2016-06-22T08:16:52.786Z,5172
2016-06-22T08:17:53.415Z,5076
2016-06-22T08:18:53.441Z,4980
2016-06-22T08:19:53.474Z,4852
2016-06-22T08:20:54.111Z,4692
2016-06-22T08:21:53.519Z,4592
2016-06-22T08:22:52.931Z,4636
2016-06-22T08:23:52.376Z,4760
2016-06-22T08:24:53.629Z,4872
2016-06-22T08:25:54.262Z,4992
2016-06-22T08:26:54.291Z,5100
2016-06-22T08:27:54.287Z,5072
2016-06-22T08:28:53.722Z,4932
2016-06-22T08:29:53.750Z,4712
2016-06-22T08:30:53.163Z,4588
2016-06-22T08:31:53.800Z,4576
2016-06-22T08:32:53.221Z,4648
2016-06-22T08:33:53.243Z,4676
2016-06-22T08:34:53.894Z,4652
2016-06-22T08:35:53.305Z,4720
2016-06-22T08:36:53.327Z,4768
2016-06-22T08:37:53.959Z,4800
2016-06-22T08:38:54.596Z,4868
2016-06-22T08:39:54.027Z,4820
2016-06-22T08:40:53.445Z,4724
2016-06-22T08:41:54.712Z,4632
2016-06-22T08:42:54.758Z,4528
2016-06-22T08:43:54.126Z,4516
2016-06-22T08:44:54.161Z,4612
2016-06-22T08:45:53.585Z,4692
2016-06-22T08:46:53.583Z,4696
2016-06-22T08:47:54.234Z,4704
2016-06-22T08:48:54.274Z,4692
2016-06-22T08:49:53.696Z,4632
2016-06-22T08:50:54.321Z,4580
2016-06-22T08:51:53.727Z,4560
2016-06-22T08:52:54.382Z,4532
2016-06-22T08:53:54.392Z,4508
2016-06-22T08:54:54.418Z,4528
2016-06-22T08:55:54.480Z,4480
2016-06-22T08:56:53.868Z,4460
2016-06-22T08:57:53.897Z,4496
2016-06-22T08:58:54.525Z,4520
2016-06-22T08:59:54.568Z,4536
2016-06-22T09:00:55.234Z,4560
2016-06-22T09:01:54.018Z,4608
2016-06-22T09:02:54.660Z,4640
2016-06-22T09:03:54.763Z,4652
2016-06-22T09:04:54.093Z,4636
2016-06-22T09:05:54.747Z,4644
2016-06-22T09:06:54.130Z,4696
2016-06-22T09:07:55.417Z,4756
2016-06-22T09:08:54.200Z,4764
2016-06-22T09:09:54.268Z,4688
2016-06-22T09:10:55.497Z,4620
2016-06-22T09:11:54.916Z,4612
2016-06-22T09:12:54.949Z,4604
2016-06-22T09:13:54.350Z,4592
2016-06-22T09:14:53.763Z,4576
2016-06-22T09:15:55.008Z,4532
2016-06-22T09:16:54.443Z,4504
2016-06-22T09:17:55.074Z,4392
2016-06-22T09:18:55.104Z,4288
2016-06-22T09:19:55.731Z,4308
2016-06-22T09:20:55.743Z,4312
2016-06-22T09:21:55.775Z,4344
2016-06-22T09:22:54.638Z,4456
2016-06-22T09:23:54.011Z,4616
2016-06-22T09:24:55.867Z,4816
2016-06-22T09:25:55.933Z,4976
2016-06-22T09:26:55.330Z,5096
2016-06-22T09:27:54.759Z,5272
2016-06-22T09:28:54.766Z,5512
2016-06-22T09:29:55.402Z,5684
2016-06-22T09:30:55.454Z,5864
2016-06-22T09:31:56.056Z,6072
2016-06-22T09:32:55.482Z,6104
2016-06-22T09:33:54.299Z,6000
2016-06-22T09:34:55.529Z,6024
2016-06-22T09:35:55.553Z,6016
2016-06-22T09:36:55.600Z,5884
2016-06-22T09:37:56.222Z,5540
2016-06-22T09:38:55.636Z,5392
2016-06-22T09:39:55.610Z,5392
2016-06-22T09:40:55.103Z,5392
2016-06-22T09:41:55.745Z,5480
2016-06-22T09:42:56.359Z,5552
2016-06-22T09:43:55.184Z,5580
2016-06-22T09:44:56.416Z,5584
2016-06-22T09:45:55.847Z,5496
2016-06-22T09:46:55.886Z,5440
2016-06-22T09:47:56.521Z,5316
2016-06-22T09:48:55.947Z,5148
2016-06-22T09:49:55.959Z,5260
2016-06-22T09:50:56.015Z,5416
2016-06-22T09:51:54.808Z,5604
2016-06-22T09:52:56.678Z,5760
2016-06-22T09:53:56.684Z,5580
2016-06-22T09:54:54.880Z,5344
2016-06-22T09:55:56.738Z,5264
2016-06-22T09:56:56.143Z,5464
2016-06-22T09:57:56.199Z,5804
2016-06-22T09:58:54.982Z,6096
2016-06-22T09:59:56.238Z,6316
2016-06-22T10:00:55.062Z,6452
2016-06-22T10:01:56.894Z,6364
2016-06-22T10:02:56.331Z,6368
2016-06-22T10:03:56.991Z,6424
2016-06-22T10:04:55.772Z,6492
2016-06-22T10:05:55.794Z,6468
2016-06-22T10:06:57.024Z,6568
2016-06-22T10:07:55.838Z,6532
2016-06-22T10:08:55.278Z,6536
2016-06-22T10:09:55.891Z,6348
2016-06-22T10:10:55.930Z,6212
2016-06-22T10:11:55.971Z,6232
2016-06-22T10:12:56.602Z,6104
2016-06-22T10:14:56.676Z,5520
2016-06-22T10:15:56.069Z,5584
2016-06-22T10:16:57.314Z,5656
2016-06-22T10:17:56.729Z,5664
2016-06-22T10:18:57.382Z,6128
2016-06-22T10:19:57.513Z,5968
2016-06-22T10:20:56.857Z,5672
2016-06-22T10:21:55.615Z,5440
2016-06-22T10:22:56.262Z,5444
2016-06-22T10:23:56.893Z,5080
2016-06-22T10:24:57.538Z,4668
2016-06-22T10:25:56.342Z,4336
2016-06-22T10:26:57.573Z,4412
2016-06-22T10:27:57.614Z,4368
2016-06-22T10:28:56.422Z,4900
2016-06-22T10:29:55.843Z,4544
2016-06-22T10:30:55.872Z,4160
2016-06-22T10:31:57.716Z,4164
2016-06-22T10:32:56.549Z,4280
2016-06-22T10:33:57.797Z,4036
2016-06-22T10:34:57.241Z,3828
2016-06-22T10:35:57.262Z,3640
2016-06-22T10:36:56.648Z,3440
2016-06-22T10:37:56.675Z,3316
2016-06-22T10:38:56.678Z,2924
2016-06-22T10:39:57.961Z,2628
2016-06-22T10:40:57.374Z,2436
2016-06-22T10:41:56.785Z,2352
2016-06-22T10:42:56.816Z,2320
2016-06-22T10:43:56.211Z,2280
2016-06-22T10:44:56.259Z,2052
2016-06-22T10:45:56.886Z,2336
2016-06-22T10:46:56.944Z,2320
2016-06-22T10:47:56.938Z,2348
2016-06-22T10:48:57.612Z,1932
2016-06-22T10:49:57.619Z,2284
2016-06-22T10:50:57.651Z,2288
2016-06-22T10:51:57.694Z,2120
2016-06-22T10:52:58.336Z,2052
2016-06-22T10:53:57.122Z,2032
2016-06-22T10:54:56.542Z,2044
2016-06-22T10:55:58.406Z,1868
2016-06-22T10:56:57.827Z,2140
2016-06-22T10:57:57.835Z,2556
2016-06-22T10:58:56.654Z,2844
2016-06-22T10:59:58.512Z,2700
2016-06-22T11:00:57.329Z,2808
2016-06-22T11:01:57.950Z,2652
2016-06-22T11:02:57.364Z,2380
2016-06-22T11:03:56.779Z,2276
2016-06-22T11:04:58.031Z,2456
2016-06-22T11:05:57.449Z,2060
2016-06-22T11:06:56.886Z,2800
2016-06-22T11:07:58.123Z,2928
2016-06-22T11:08:57.550Z,2744
2016-06-22T11:09:57.565Z,2616
2016-06-22T11:10:57.597Z,2556
2016-06-22T11:11:58.218Z,2836
2016-06-22T11:12:58.245Z,2852
2016-06-22T11:13:58.923Z,2724
2016-06-22T11:14:58.297Z,2448
2016-06-22T11:15:58.387Z,2080
2016-06-22T11:16:58.996Z,2404
2016-06-22T11:18:59.036Z,2788
2016-06-22T11:19:59.070Z,3136
2016-06-22T11:20:59.078Z,2716
2016-06-22T11:21:58.526Z,2408
2016-06-22T11:22:57.928Z,2764
2016-06-22T11:23:58.557Z,3096
2016-06-22T11:24:58.598Z,3572
2016-06-22T11:25:57.387Z,3692
2016-06-22T11:26:58.655Z,3744
2016-06-22T11:27:58.684Z,3340
2016-06-22T11:28:58.695Z,3096
2016-06-22T11:29:58.735Z,2516
2016-06-22T11:30:58.761Z,2216
2016-06-22T11:31:58.791Z,2300
2016-06-22T11:32:58.811Z,2588
2016-06-22T11:33:58.914Z,3388
2016-06-22T11:34:59.082Z,4108
2016-06-22T11:35:59.511Z,4288
2016-06-22T11:36:57.709Z,4452
2016-06-22T11:37:58.346Z,4532
2016-06-22T11:38:58.364Z,4468
2016-06-22T11:39:57.805Z,4380
2016-06-22T11:40:59.037Z,4532
2016-06-22T11:41:59.063Z,4280
2016-06-22T11:42:59.908Z,3848
2016-06-22T11:43:57.879Z,3656
2016-06-22T11:44:59.153Z,3760
2016-06-22T11:45:58.568Z,3740
2016-06-22T11:46:59.202Z,4164
2016-06-22T11:47:58.026Z,4052
2016-06-22T11:48:58.032Z,4256
2016-06-22T11:49:59.934Z,4760
2016-06-22T11:50:59.326Z,4976
2016-06-22T11:51:58.739Z,5172
2016-06-22T11:52:58.756Z,5132
2016-06-22T11:53:59.998Z,4864
2016-06-22T11:55:00.030Z,4696
2016-06-22T11:55:58.228Z,4692
2016-06-22T11:56:58.906Z,4796
2016-06-22T11:57:59.752Z,4984
2016-06-22T11:58:59.556Z,5240
2016-06-22T11:59:59.571Z,5428
2016-06-22T12:00:58.380Z,5144
2016-06-22T12:01:59.626Z,4888
2016-06-22T12:02:59.662Z,4608
2016-06-22T12:04:00.326Z,4436
2016-06-22T12:04:59.090Z,4340
2016-06-22T12:05:59.770Z,4276
2016-06-22T12:06:59.150Z,4452
2016-06-22T12:07:59.171Z,4684
2016-06-22T12:08:59.206Z,4812
2016-06-22T12:09:59.850Z,4876
2016-06-22T12:10:59.282Z,4884
2016-06-22T12:12:00.545Z,4784
2016-06-22T12:12:59.341Z,4656
2016-06-22T12:13:59.982Z,4604
2016-06-22T12:15:00.594Z,4576
2016-06-22T12:15:58.808Z,4636
2016-06-22T12:17:00.049Z,4604
2016-06-22T12:17:58.864Z,4468
2016-06-22T12:18:58.868Z,4536
2016-06-22T12:20:00.766Z,4636
2016-06-22T12:20:59.546Z,4724
2016-06-22T12:22:00.178Z,4844
2016-06-22T12:23:00.236Z,4812
2016-06-22T12:24:00.869Z,4748
2016-06-22T12:25:00.856Z,4708
2016-06-22T12:25:59.720Z,4876
2016-06-22T12:27:00.317Z,5104
2016-06-22T12:28:00.357Z,5268
2016-06-22T12:29:00.367Z,5272
2016-06-22T12:29:59.182Z,5224
2016-06-22T12:30:59.815Z,5148
2016-06-22T12:32:00.535Z,5020
2016-06-22T12:32:59.887Z,4868
2016-06-22T12:34:01.143Z,4772
2016-06-22T12:35:00.555Z,4652
2016-06-22T12:35:59.962Z,4540
2016-06-22T12:37:01.216Z,4632
2016-06-22T12:38:01.244Z,4836
2016-06-22T12:39:00.038Z,5016
2016-06-22T12:40:00.740Z,5104
2016-06-22T12:41:00.698Z,5256
2016-06-22T12:42:00.762Z,5316
2016-06-22T12:43:00.773Z,5272
2016-06-22T12:44:01.631Z,5292
2016-06-22T12:45:00.835Z,5272
2016-06-22T12:46:00.851Z,5188
2016-06-22T12:47:00.268Z,5012
2016-06-22T12:48:00.272Z,4864
2016-06-22T12:49:00.932Z,4788
2016-06-22T12:50:01.018Z,4776
2016-06-22T12:51:00.383Z,4724
2016-06-22T12:52:01.013Z,4644
2016-06-22T12:53:00.437Z,4644
2016-06-22T12:53:59.849Z,4524
2016-06-22T12:55:01.730Z,4172
2016-06-22T12:56:01.146Z,4116
2016-06-22T12:57:01.760Z,4212
2016-06-22T12:57:59.975Z,4104
2016-06-22T12:59:00.631Z,3856
2016-06-22T13:00:01.220Z,3720
2016-06-22T13:01:00.661Z,3788
2016-06-22T13:02:00.088Z,3980
2016-06-22T13:03:01.925Z,4164
2016-06-22T13:04:01.363Z,4152
2016-06-22T13:05:00.164Z,4048
2016-06-22T13:06:00.175Z,3932
2016-06-22T13:07:00.211Z,3808
2016-06-22T13:08:02.065Z,3660
2016-06-22T13:09:00.255Z,3496
2016-06-22T13:10:00.906Z,3336
2016-06-22T13:11:01.532Z,3372
2016-06-22T13:12:01.597Z,3308
2016-06-22T13:13:00.995Z,3120
2016-06-22T13:14:01.619Z,2884
2016-06-22T13:15:01.661Z,2672
2016-06-22T13:16:00.456Z,2560
2016-06-22T13:17:01.412Z,2528
2016-06-22T13:18:01.162Z,2640
2016-06-22T13:19:01.166Z,2916
2016-06-22T13:20:01.192Z,3200
2016-06-22T13:21:01.227Z,3480
2016-06-22T13:22:01.868Z,3724
2016-06-22T13:23:01.275Z,3948
2016-06-22T13:24:01.923Z,4192
2016-06-22T13:25:01.958Z,4364
2016-06-22T13:26:02.567Z,4484
2016-06-22T13:27:02.615Z,4532
2016-06-22T13:28:01.420Z,4648
2016-06-22T13:29:02.074Z,4708
2016-06-22T13:30:01.463Z,4688
2016-06-22T13:31:01.091Z,4656
2016-06-22T13:32:02.142Z,4664
2016-06-22T13:33:02.166Z,4716
2016-06-22T13:34:02.186Z,4712
2016-06-22T13:35:01.016Z,4696
2016-06-22T13:36:02.867Z,4680
2016-06-22T13:37:02.279Z,4688
2016-06-22T13:38:02.327Z,4744
2016-06-22T13:39:02.954Z,4740
2016-06-22T13:40:02.382Z,4660
2016-06-22T13:41:01.794Z,4584
2016-06-22T13:42:02.397Z,4492
2016-06-22T13:43:03.082Z,4484
2016-06-22T13:44:03.069Z,4472